createdAt,value
2023-05-24T00:01:41.084Z,16.50
2023-05-24T00:07:03.473Z,16.42
2023-05-24T00:12:50.654Z,16.32
2023-05-24T00:18:00.703Z,16.22
2023-05-24T00:23:16.630Z,16.10
2023-05-24T00:28:41.645Z,16.00
2023-05-24T00:33:57.564Z,15.96
2023-05-24T00:39:08.165Z,15.97
2023-05-24T00:44:52.205Z,16.01
2023-05-24T00:50:25.693Z,16.03
2023-05-24T00:56:05.151Z,16.05
2023-05-24T01:01:21.837Z,16.06
2023-05-24T01:07:22.870Z,16.09
2023-05-24T01:13:27.819Z,16.11
2023-05-24T01:19:02.090Z,16.13
2023-05-24T01:24:35.935Z,16.15
2023-05-24T01:30:00.933Z,16.21
2023-05-24T01:35:23.810Z,16.21
2023-05-24T01:40:41.474Z,16.21
2023-05-24T01:46:12.034Z,16.20
2023-05-24T01:51:34.286Z,16.22
2023-05-24T01:56:57.763Z,16.25
2023-05-24T02:02:23.278Z,16.24
2023-05-24T02:07:55.362Z,16.25
2023-05-24T02:13:19.852Z,16.24
2023-05-24T02:18:41.527Z,16.23
2023-05-24T02:24:04.883Z,16.24
2023-05-24T02:29:11.916Z,16.23
2023-05-24T02:34:15.941Z,16.22
2023-05-24T02:39:35.553Z,16.22
2023-05-24T02:45:06.205Z,16.26
2023-05-24T02:50:36.851Z,16.25
2023-05-24T02:55:57.217Z,16.28
2023-05-24T03:01:25.107Z,16.27
2023-05-24T03:06:47.339Z,16.26
2023-05-24T03:12:07.990Z,16.30
2023-05-24T03:17:23.772Z,16.31
2023-05-24T03:22:46.457Z,16.26
2023-05-24T03:28:03.060Z,16.22
2023-05-24T03:33:20.304Z,16.13
2023-05-24T03:38:35.416Z,15.90
2023-05-24T03:43:48.171Z,15.69
2023-05-24T03:49:13.064Z,15.48
2023-05-24T03:54:31.426Z,15.30
2023-05-24T04:00:12.722Z,15.14
2023-05-24T04:05:51.290Z,14.90
2023-05-24T04:11:39.578Z,14.75
2023-05-24T04:16:57.586Z,14.65
2023-05-24T04:22:33.350Z,14.52
2023-05-24T04:27:39.982Z,14.42
2023-05-24T04:32:52.118Z,14.31
2023-05-24T04:38:09.411Z,14.17
2023-05-24T04:43:22.685Z,14.02
2023-05-24T04:48:39.193Z,13.98
2023-05-24T04:53:44.813Z,13.96
2023-05-24T04:58:57.438Z,13.98
2023-05-24T05:04:22.486Z,14.05
2023-05-24T05:09:43.714Z,13.94
2023-05-24T05:15:01.564Z,13.88
2023-05-24T05:20:19.263Z,13.83
2023-05-24T05:25:27.472Z,13.84
2023-05-24T05:30:35.601Z,13.87
2023-05-24T05:36:03.652Z,13.84
2023-05-24T05:41:12.176Z,13.70
2023-05-24T05:46:27.949Z,13.58
2023-05-24T05:51:46.973Z,13.47
2023-05-24T05:56:59.526Z,13.45
2023-05-24T06:02:23.035Z,13.37
2023-05-24T06:07:28.856Z,13.39
2023-05-24T06:12:51.388Z,13.42
2023-05-24T06:17:56.634Z,13.40
2023-05-24T06:23:03.322Z,13.39
2023-05-24T06:28:09.639Z,13.36
2023-05-24T06:33:11.687Z,13.37
2023-05-24T06:38:27.952Z,13.36
2023-05-24T06:43:46.145Z,13.42
2023-05-24T06:48:48.802Z,13.43
2023-05-24T06:54:11.850Z,13.49
2023-05-24T06:59:37.574Z,13.63
2023-05-24T07:04:42.632Z,13.73
2023-05-24T07:09:50.194Z,13.68
2023-05-24T07:14:56.249Z,13.68
2023-05-24T07:19:59.883Z,13.72
2023-05-24T07:25:23.082Z,13.80
2023-05-24T07:30:32.596Z,13.78
2023-05-24T07:35:52.463Z,13.82
2023-05-24T07:40:59.280Z,13.81
2023-05-24T07:46:01.650Z,13.77
2023-05-24T07:51:09.734Z,13.85
2023-05-24T07:56:15.428Z,13.92
2023-05-24T08:01:23.690Z,13.89
2023-05-24T08:06:25.933Z,13.84
2023-05-24T08:11:31.267Z,13.91
2023-05-24T08:16:33.927Z,14.01
2023-05-24T08:21:37.783Z,14.15
2023-05-24T08:26:43.814Z,14.27
2023-05-24T08:31:49.339Z,14.39
2023-05-24T08:36:55.189Z,14.49
2023-05-24T08:42:08.837Z,14.62
2023-05-24T08:47:13.846Z,14.88
2023-05-24T08:52:16.442Z,15.06
2023-05-24T08:57:20.236Z,15.11
2023-05-24T09:02:23.697Z,15.08
2023-05-24T09:07:33.217Z,15.29
2023-05-24T09:12:39.538Z,15.68
2023-05-24T09:17:41.716Z,15.62
2023-05-24T09:22:53.654Z,15.60
2023-05-24T09:28:30.902Z,15.80
2023-05-24T09:33:38.883Z,16.01
2023-05-24T09:38:50.246Z,15.97
2023-05-24T09:44:03.403Z,16.03
2023-05-24T09:49:09.641Z,16.05
2023-05-24T09:54:16.936Z,15.97
2023-05-24T09:59:24.582Z,15.78
2023-05-24T10:04:34.336Z,15.52
2023-05-24T10:09:36.705Z,15.47
2023-05-24T10:14:39.490Z,15.49
2023-05-24T10:19:42.056Z,15.68
2023-05-24T10:24:50.562Z,15.93
2023-05-24T10:30:14.921Z,16.32
2023-05-24T10:35:20.256Z,16.77
2023-05-24T10:40:27.467Z,17.15
2023-05-24T10:45:35.571Z,17.38
2023-05-24T10:50:38.073Z,17.37
2023-05-24T10:55:57.297Z,17.33
2023-05-24T11:00:59.476Z,17.25
2023-05-24T11:06:01.756Z,17.28
2023-05-24T11:11:23.238Z,17.52
2023-05-24T11:16:37.525Z,17.83
2023-05-24T11:21:43.664Z,17.82
2023-05-24T11:26:46.513Z,17.63
2023-05-24T11:31:57.622Z,17.56
2023-05-24T11:37:34.924Z,17.73
2023-05-24T11:42:44.812Z,17.92
2023-05-24T11:47:50.688Z,18.09
2023-05-24T11:52:54.025Z,18.10
2023-05-24T11:58:02.437Z,18.18
2023-05-24T12:03:07.732Z,18.33
2023-05-24T12:08:34.868Z,18.45
2023-05-24T12:13:38.176Z,18.44
2023-05-24T12:18:51.420Z,18.58
2023-05-24T12:24:14.674Z,18.71
2023-05-24T12:29:20.215Z,18.60
2023-05-24T12:34:25.122Z,18.34
2023-05-24T12:39:31.889Z,18.05
2023-05-24T12:44:36.652Z,17.83
2023-05-24T12:49:38.979Z,17.79
2023-05-24T12:54:41.596Z,17.70
2023-05-24T12:59:43.762Z,17.53
2023-05-24T13:04:46.486Z,17.41
2023-05-24T13:09:52.128Z,17.29
2023-05-24T13:14:54.359Z,17.14
2023-05-24T13:19:57.473Z,17.10
2023-05-24T13:24:59.495Z,17.13
2023-05-24T13:30:06.224Z,17.35
2023-05-24T13:35:11.946Z,17.57
2023-05-24T13:40:14.787Z,17.66
2023-05-24T13:45:17.539Z,17.62
2023-05-24T13:50:23.921Z,17.58
2023-05-24T13:55:37.096Z,17.34
2023-05-24T14:00:44.173Z,17.17
2023-05-24T14:05:49.075Z,17.03
2023-05-24T14:10:51.875Z,16.95
2023-05-24T14:15:55.379Z,16.91
2023-05-24T14:20:57.644Z,17.03
2023-05-24T14:26:00.176Z,16.96
2023-05-24T14:31:10.582Z,16.90
2023-05-24T14:36:12.709Z,16.87
2023-05-24T14:41:16.296Z,16.86
2023-05-24T14:46:18.875Z,16.79
2023-05-24T14:51:21.587Z,16.78
2023-05-24T14:56:23.790Z,16.70
2023-05-24T15:01:26.528Z,16.60
2023-05-24T15:06:34.710Z,16.53
2023-05-24T15:11:37.889Z,16.42
2023-05-24T15:16:42.309Z,16.32
2023-05-24T15:21:44.731Z,16.34
2023-05-24T15:26:47.449Z,16.27
2023-05-24T15:31:50.387Z,16.27
2023-05-24T15:36:55.645Z,16.34
2023-05-24T15:41:57.858Z,16.33
2023-05-24T15:47:00.166Z,16.36
2023-05-24T15:52:04.738Z,16.35
2023-05-24T15:57:07.773Z,16.38
2023-05-24T16:02:09.832Z,16.40
2023-05-24T16:07:12.645Z,16.40
2023-05-24T16:12:14.531Z,16.42
2023-05-24T16:17:16.664Z,16.44
2023-05-24T16:22:18.621Z,16.45
2023-05-24T16:27:21.926Z,16.46
2023-05-24T16:32:24.242Z,16.40
2023-05-24T16:37:26.241Z,16.30
2023-05-24T16:42:31.472Z,16.25
2023-05-24T16:47:34.319Z,16.22
2023-05-24T16:52:37.049Z,16.11
2023-05-24T16:57:39.277Z,16.06
2023-05-24T17:02:41.529Z,15.95
2023-05-24T17:07:45.389Z,15.94
2023-05-24T17:12:47.560Z,15.92
2023-05-24T17:17:51.401Z,15.84
2023-05-24T17:22:55.871Z,15.76
2023-05-24T17:27:58.037Z,15.70
2023-05-24T17:33:00.030Z,15.67
2023-05-24T17:38:02.180Z,15.68
2023-05-24T17:43:05.328Z,15.68
2023-05-24T17:48:08.091Z,15.61
2023-05-24T17:53:22.724Z,15.58
2023-05-24T17:58:36.307Z,15.57
2023-05-24T18:03:40.936Z,15.54
2023-05-24T18:08:44.296Z,15.49
2023-05-24T18:13:47.024Z,15.45
2023-05-24T18:18:49.136Z,15.40
2023-05-24T18:23:51.226Z,15.36
2023-05-24T18:28:54.102Z,15.32
2023-05-24T18:33:56.240Z,15.29
2023-05-24T18:38:58.255Z,15.27
2023-05-24T18:44:00.888Z,15.29
2023-05-24T18:49:04.193Z,15.30
2023-05-24T18:54:07.396Z,15.28
2023-05-24T18:59:17.063Z,15.28
2023-05-24T19:04:19.551Z,15.27
2023-05-24T19:09:21.864Z,15.19
2023-05-24T19:14:24.165Z,15.14
2023-05-24T19:19:26.608Z,15.13
2023-05-24T19:24:28.468Z,15.12
2023-05-24T19:29:34.598Z,15.13
2023-05-24T19:34:37.443Z,15.15
2023-05-24T19:39:39.501Z,15.13
2023-05-24T19:44:41.329Z,15.10
2023-05-24T19:49:43.298Z,15.13
2023-05-24T19:54:48.474Z,15.07
2023-05-24T19:59:50.574Z,15.03
2023-05-24T20:04:53.205Z,14.99
2023-05-24T20:09:56.140Z,14.92
2023-05-24T20:14:58.326Z,14.90
2023-05-24T20:20:00.711Z,14.93
2023-05-24T20:25:03.747Z,14.95
2023-05-24T20:30:17.793Z,14.94
2023-05-24T20:35:20.995Z,14.87
2023-05-24T20:40:26.923Z,14.87
2023-05-24T20:45:29.236Z,14.82
2023-05-24T20:50:33.776Z,14.78
2023-05-24T20:55:36.064Z,14.74
2023-05-24T21:00:40.087Z,14.72
2023-05-24T21:05:43.144Z,14.72
2023-05-24T21:10:51.153Z,14.74
2023-05-24T21:16:13.472Z,14.74
2023-05-24T21:21:16.857Z,14.74
2023-05-24T21:26:19.305Z,14.74
2023-05-24T21:31:21.538Z,14.75
2023-05-24T21:36:23.969Z,14.78
2023-05-24T21:41:31.622Z,14.78
2023-05-24T21:46:36.537Z,14.77
2023-05-24T21:51:53.768Z,14.72
2023-05-24T21:57:06.831Z,14.71
2023-05-24T22:02:12.339Z,14.69
2023-05-24T22:08:30.323Z,14.68
2023-05-24T22:13:32.878Z,14.70
2023-05-24T22:18:49.682Z,14.66
2023-05-24T22:24:38.401Z,14.56
2023-05-24T22:29:43.915Z,14.53
2023-05-24T22:34:49.254Z,14.48
2023-05-24T22:39:51.452Z,14.49
2023-05-24T22:44:56.416Z,14.50
2023-05-24T22:50:01.879Z,14.49
2023-05-24T22:55:08.146Z,14.48
2023-05-24T23:00:11.896Z,14.48
2023-05-24T23:05:15.101Z,14.49
2023-05-24T23:10:23.044Z,14.48
2023-05-24T23:15:29.056Z,14.44
2023-05-24T23:20:42.172Z,14.44
2023-05-24T23:25:47.329Z,14.43
2023-05-24T23:30:49.716Z,14.45
2023-05-24T23:35:53.631Z,14.44
2023-05-24T23:40:59.087Z,14.44
2023-05-24T23:46:03.625Z,14.40
2023-05-24T23:51:10.218Z,14.40
2023-05-24T23:56:13.798Z,14.38
